Time;durP1;ratioP1;P1;durP2;ratioP2;P2;SDS_P1;SDS_P2;PMS_P1;PMS_P2;Temp;Humidity;BMP_temperature;BMP_pressure;BME280_temperature;BME280_humidity;BME280_pressure;Samples;Min_cycle;Max_cycle;Signal;HPM_P1;HPM_P2
2022/02/12 00:02:11;;;;;;;23.00;7.15;;;;;;;-0.67;85.47;103433.75;5024595;28;20030;-66
2022/02/12 00:04:37;;;;;;;19.23;6.20;;;;;;;-0.69;85.28;103437.06;5026341;28;20009;-66
2022/02/12 00:07:02;;;;;;;24.70;6.40;;;;;;;-0.59;85.57;103430.69;5026616;28;20033;-66
2022/02/12 00:09:28;;;;;;;23.50;6.18;;;;;;;-0.56;85.67;103433.44;5028274;28;20029;-66
2022/02/12 00:11:53;;;;;;;23.23;6.63;;;;;;;-0.50;85.67;103431.19;5025597;28;20104;-67
2022/02/12 00:14:18;;;;;;;20.08;6.60;;;;;;;-0.45;85.60;103428.88;5027828;28;20033;-65
2022/02/12 00:16:44;;;;;;;32.58;7.68;;;;;;;-0.38;85.87;103430.97;5039860;28;20029;-67
2022/02/12 00:19:09;;;;;;;21.40;6.80;;;;;;;-0.37;86.05;103424.97;5047391;28;20029;-66
2022/02/12 00:21:35;;;;;;;23.60;7.72;;;;;;;-0.34;85.96;103419.97;5046823;28;20108;-66
2022/02/12 00:24:00;;;;;;;25.40;8.18;;;;;;;-0.31;85.82;103407.16;5047584;28;20112;-66
2022/02/12 00:26:25;;;;;;;27.88;8.52;;;;;;;-0.32;86.20;103409.66;5047749;28;20060;-66
2022/02/12 00:28:51;;;;;;;33.25;9.60;;;;;;;-0.31;86.33;103401.97;5046073;28;20021;-65
2022/02/12 00:31:16;;;;;;;30.23;8.75;;;;;;;-0.27;86.44;103400.47;5045576;28;20025;-65
2022/02/12 00:33:42;;;;;;;29.70;9.75;;;;;;;-0.21;86.49;103402.47;5047788;28;20025;-65
2022/02/12 00:36:07;;;;;;;30.00;9.13;;;;;;;-0.20;86.60;103394.78;5045834;28;20032;-66
2022/02/12 00:38:33;;;;;;;23.23;8.25;;;;;;;-0.15;86.51;103395.03;5047603;28;20462;-66
2022/02/12 00:40:58;;;;;;;31.58;8.18;;;;;;;-0.14;86.42;103389.03;5046162;28;20025;-65
2022/02/12 00:43:23;;;;;;;23.42;7.07;;;;;;;-0.15;86.28;103387.25;5045771;28;20535;-66
2022/02/12 00:45:49;;;;;;;30.30;8.73;;;;;;;-0.13;86.16;103385.63;5047198;28;20025;-66
2022/02/12 00:48:15;;;;;;;21.63;7.72;;;;;;;-0.13;86.06;103378.75;5047356;28;20021;-65
2022/02/12 00:50:40;;;;;;;31.05;7.40;;;;;;;-0.17;85.88;103379.41;5046315;28;20025;-67
2022/02/12 00:53:06;;;;;;;28.13;7.03;;;;;;;-0.18;85.88;103372.41;5047302;28;20024;-66
2022/02/12 00:55:31;;;;;;;25.10;7.45;;;;;;;-0.16;86.08;103377.69;5046409;28;20045;-67
2022/02/12 00:57:56;;;;;;;25.00;8.52;;;;;;;-0.12;86.09;103374.41;5045032;28;20116;-65
2022/02/12 01:00:22;;;;;;;18.10;7.57;;;;;;;-0.24;86.18;103371.22;5043083;28;20033;-67
2022/02/12 01:02:47;;;;;;;29.13;8.77;;;;;;;-0.33;86.73;103372.50;5027128;28;20152;-66
2022/02/12 01:05:13;;;;;;;25.85;7.25;;;;;;;-0.37;86.89;103365.38;5026364;28;20056;-67
2022/02/12 01:07:38;;;;;;;24.33;7.90;;;;;;;-0.42;87.18;103369.44;5027335;28;20029;-67
2022/02/12 01:10:04;;;;;;;32.60;8.43;;;;;;;-0.42;87.22;103364.25;5027145;28;20609;-66
2022/02/12 01:12:29;;;;;;;29.75;8.60;;;;;;;-0.44;87.50;103360.69;5026689;28;20116;-67
2022/02/12 01:14:55;;;;;;;24.50;7.75;;;;;;;-0.45;87.66;103357.19;5025070;28;20041;-65
2022/02/12 01:17:20;;;;;;;25.10;8.25;;;;;;;-0.42;87.39;103356.50;5026272;28;20037;-66
2022/02/12 01:19:49;;;;;;;23.50;7.03;;;;;;;-0.43;87.48;103354.69;5025936;28;20069;-65
2022/02/12 01:22:15;;;;;;;25.25;8.95;;;;;;;-0.42;87.60;103361.66;5024831;28;20045;-67
2022/02/12 01:24:42;;;;;;;37.65;9.38;;;;;;;-0.43;88.12;103354.69;5027007;28;20030;-67
2022/02/12 01:27:07;;;;;;;21.85;8.32;;;;;;;-0.40;88.02;103354.84;5025733;28;20030;-68
2022/02/12 01:29:33;;;;;;;24.98;8.73;;;;;;;-0.36;87.95;103351.59;5026476;28;20026;-66
2022/02/12 01:32:03;;;;;;;28.23;7.72;;;;;;;-0.37;87.94;103355.00;5025121;28;20187;-67
2022/02/12 01:34:30;;;;;;;27.80;8.20;;;;;;;-0.39;87.77;103351.47;5025757;28;20068;-67
2022/02/12 01:36:56;;;;;;;22.75;7.50;;;;;;;-0.39;87.51;103351.47;5025986;28;20029;-67
2022/02/12 01:39:21;;;;;;;23.33;7.40;;;;;;;-0.43;87.37;103354.69;5026550;28;20034;-66
2022/02/12 01:41:46;;;;;;;25.90;7.57;;;;;;;-0.40;87.70;103353.16;5025601;28;20037;-65
2022/02/12 01:44:12;;;;;;;26.42;8.15;;;;;;;-0.42;87.69;103352.19;5026928;28;20100;-66
2022/02/12 01:46:38;;;;;;;24.48;7.07;;;;;;;-0.44;87.56;103343.47;5024688;28;20095;-67
2022/02/12 01:49:03;;;;;;;28.75;7.38;;;;;;;-0.46;87.63;103350.25;5025977;28;20053;-67
2022/02/12 01:51:29;;;;;;;26.45;8.23;;;;;;;-0.49;87.42;103344.03;5025201;28;20014;-68
2022/02/12 01:53:54;;;;;;;22.08;7.97;;;;;;;-0.52;87.61;103348.22;5025391;28;20468;-68
2022/02/12 01:56:20;;;;;;;27.85;7.32;;;;;;;-0.53;87.59;103336.09;5025555;28;20022;-67
2022/02/12 01:58:46;;;;;;;27.73;7.00;;;;;;;-0.53;87.73;103342.97;5025897;28;20025;-66
2022/02/12 02:01:13;;;;;;;38.70;7.13;;;;;;;-0.53;87.60;103335.19;5024016;28;20574;-67
2022/02/12 02:03:38;;;;;;;23.02;7.13;;;;;;;-0.53;87.65;103333.50;5026531;28;20392;-66
2022/02/12 02:06:05;;;;;;;28.00;6.85;;;;;;;-0.53;87.48;103333.50;5024936;28;20032;-66
2022/02/12 02:08:30;;;;;;;30.95;7.20;;;;;;;-0.49;87.66;103328.50;5024012;28;20746;-66
2022/02/12 02:10:56;;;;;;;19.67;6.55;;;;;;;-0.45;87.79;103325.25;5025985;28;20808;-66
2022/02/12 02:13:23;;;;;;;27.52;8.10;;;;;;;-0.43;87.59;103324.50;5025025;28;20036;-67
2022/02/12 02:15:48;;;;;;;21.23;7.30;;;;;;;-0.36;87.40;103324.81;5024809;28;20091;-67
2022/02/12 02:18:14;;;;;;;22.58;6.72;;;;;;;-0.35;87.39;103308.47;5026440;28;20029;-66
2022/02/12 02:20:40;;;;;;;22.85;7.28;;;;;;;-0.37;87.02;103318.75;5024727;28;20034;-67
2022/02/12 02:23:05;;;;;;;25.42;7.32;;;;;;;-0.40;87.19;103303.94;5025787;28;20057;-66
2022/02/12 02:25:30;;;;;;;21.73;5.85;;;;;;;-0.36;86.87;103301.50;5024746;28;20025;-66
2022/02/12 02:27:55;;;;;;;23.05;6.00;;;;;;;-0.36;86.77;103297.19;5024845;28;20022;-66
2022/02/12 02:30:22;;;;;;;26.70;7.00;;;;;;;-0.37;86.77;103285.06;5024673;28;20395;-66
2022/02/12 02:32:48;;;;;;;22.35;7.28;;;;;;;-0.42;86.50;103284.81;5038500;28;20083;-66
2022/02/12 02:35:16;;;;;;;17.33;5.70;;;;;;;-0.43;86.29;103287.31;5045249;28;20021;-67
2022/02/12 02:37:42;;;;;;;25.75;6.78;;;;;;;-0.41;86.40;103285.72;5044600;28;20083;-67
2022/02/12 02:40:12;;;;;;;29.35;6.65;;;;;;;-0.43;86.18;103280.47;5045182;28;20459;-67
2022/02/12 02:42:39;;;;;;;23.02;5.30;;;;;;;-0.42;85.95;103268.41;5030221;28;20033;-67
2022/02/12 02:45:07;;;;;;;19.02;5.90;;;;;;;-0.44;86.04;103270.91;5025459;28;20112;-67
2022/02/12 02:47:33;;;;;;;21.20;6.05;;;;;;;-0.47;86.11;103267.25;5023173;28;20022;-67
2022/02/12 02:49:58;;;;;;;17.15;6.40;;;;;;;-0.45;86.02;103263.94;5025399;28;20025;-66
2022/02/12 02:57:52;;;;;;;24.40;7.05;;;;;;;-0.39;85.43;103260.78;5001992;28;20358;-67
2022/02/12 03:00:17;;;;;;;27.92;7.22;;;;;;;-0.33;85.80;103263.66;5005801;28;20022;-66
2022/02/12 03:02:43;;;;;;;18.63;5.45;;;;;;;-0.31;85.54;103267.25;5019514;28;20038;-70
2022/02/12 03:05:08;;;;;;;17.52;5.00;;;;;;;-0.26;85.12;103263.19;5024815;28;20025;-66
2022/02/12 03:07:34;;;;;;;31.88;6.13;;;;;;;-0.29;84.69;103265.63;5025162;28;20664;-67
2022/02/12 03:09:59;;;;;;;23.05;6.30;;;;;;;-0.30;84.49;103258.66;5023949;28;20096;-66
2022/02/12 03:12:25;;;;;;;25.55;6.20;;;;;;;-0.32;84.46;103260.28;5024568;28;20025;-66
2022/02/12 03:14:50;;;;;;;21.85;5.50;;;;;;;-0.36;84.43;103247.97;5024714;28;20057;-65
2022/02/12 03:17:15;;;;;;;23.15;5.47;;;;;;;-0.36;84.27;103249.69;5035459;28;20478;-66
2022/02/12 03:19:40;;;;;;;17.27;5.45;;;;;;;-0.39;84.56;103253.03;5045314;28;20025;-67
2022/02/12 03:22:06;;;;;;;17.08;5.93;;;;;;;-0.37;84.61;103243.59;5043249;28;20024;-66
2022/02/12 03:24:31;;;;;;;21.10;5.20;;;;;;;-0.39;84.54;103242.66;5043228;28;20116;-66
2022/02/12 03:26:56;;;;;;;19.90;5.70;;;;;;;-0.40;84.19;103231.41;5044337;28;20071;-65
2022/02/12 03:29:22;;;;;;;21.92;5.20;;;;;;;-0.44;84.07;103229.47;5045269;28;20060;-65
2022/02/12 03:31:48;;;;;;;21.70;5.78;;;;;;;-0.42;83.85;103214.00;5031518;28;20483;-65
2022/02/12 03:34:13;;;;;;;16.67;6.30;;;;;;;-0.47;83.96;103218.94;5024118;28;20029;-67
2022/02/12 03:36:38;;;;;;;16.90;6.22;;;;;;;-0.48;83.95;103205.91;5024578;28;20021;-66
2022/02/12 03:39:04;;;;;;;23.92;6.68;;;;;;;-0.45;83.91;103211.25;5028592;28;20041;-67
2022/02/12 03:41:29;;;;;;;26.63;5.57;;;;;;;-0.50;83.74;103205.84;5028458;28;20029;-66
2022/02/12 03:43:54;;;;;;;17.90;6.38;;;;;;;-0.54;83.90;103201.31;5027342;28;20135;-67
2022/02/12 03:46:20;;;;;;;18.42;5.38;;;;;;;-0.54;83.91;103207.38;5028059;28;20026;-67
2022/02/12 03:48:45;;;;;;;17.48;5.85;;;;;;;-0.52;83.72;103205.75;5028943;28;20049;-67
2022/02/12 03:51:10;;;;;;;22.58;6.38;;;;;;;-0.55;83.68;103215.97;5028792;28;20033;-66
2022/02/12 03:53:36;;;;;;;20.42;4.57;;;;;;;-0.58;83.62;103214.91;5028379;28;20025;-66
2022/02/12 03:56:01;;;;;;;13.98;4.80;;;;;;;-0.64;83.71;103200.84;5028146;28;20146;-66
2022/02/12 03:58:26;;;;;;;22.25;5.85;;;;;;;-0.63;83.78;103206.94;5028985;28;20026;-65
2022/02/12 04:00:52;;;;;;;16.63;5.90;;;;;;;-0.65;83.57;103198.19;5027318;28;20028;-66
2022/02/12 04:03:17;;;;;;;25.17;6.82;;;;;;;-0.66;83.87;103191.22;5027546;28;20033;-65
2022/02/12 04:05:46;;;;;;;18.77;5.95;;;;;;;-0.61;83.42;103184.56;5027758;28;20024;-65
2022/02/12 04:08:13;;;;;;;24.95;6.15;;;;;;;-0.63;83.36;103186.22;5027338;28;20045;-66
2022/02/12 04:10:39;;;;;;;11.98;5.45;;;;;;;-0.62;83.43;103185.38;5028534;28;20405;-66
2022/02/12 04:13:05;;;;;;;25.88;6.43;;;;;;;-0.62;83.52;103181.91;5027103;28;20115;-65
2022/02/12 04:15:30;;;;;;;16.52;5.85;;;;;;;-0.62;83.43;103187.97;5026419;28;20037;-65
2022/02/12 04:17:56;;;;;;;21.50;5.13;;;;;;;-0.65;83.26;103173.19;5028245;28;20033;-66
2022/02/12 04:20:22;;;;;;;12.05;5.85;;;;;;;-0.66;83.35;103173.09;5027398;28;20021;-66
2022/02/12 04:22:49;;;;;;;21.27;5.13;;;;;;;-0.65;83.33;103183.53;5026833;28;20037;-67
2022/02/12 04:25:17;;;;;;;18.70;5.65;;;;;;;-0.68;83.37;103169.53;5028371;28;20025;-66
2022/02/12 04:27:42;;;;;;;18.25;5.80;;;;;;;-0.68;83.16;103170.44;5027720;28;20455;-66
2022/02/12 04:30:09;;;;;;;24.17;6.20;;;;;;;-0.71;83.06;103165.09;5027114;28;20087;-66
2022/02/12 04:32:35;;;;;;;18.45;6.30;;;;;;;-0.75;83.32;103167.44;5027766;28;20434;-66
2022/02/12 04:35:00;;;;;;;20.40;5.47;;;;;;;-0.78;83.52;103163.00;5027168;28;20021;-66
2022/02/12 04:37:26;;;;;;;12.88;4.90;;;;;;;-0.79;83.37;103162.13;5027330;28;20075;-66
2022/02/12 04:39:52;;;;;;;25.80;5.93;;;;;;;-0.80;83.41;103160.34;5027444;28;20120;-67
2022/02/12 04:42:17;;;;;;;19.88;5.82;;;;;;;-0.77;83.26;103157.91;5025694;28;20028;-68
2022/02/12 04:44:48;;;;;;;16.05;5.40;;;;;;;-0.74;83.19;103141.63;5026561;28;20025;-67
2022/02/12 04:47:14;;;;;;;26.58;6.30;;;;;;;-0.70;83.16;103142.66;5026770;28;20038;-67
2022/02/12 04:49:39;;;;;;;13.75;5.15;;;;;;;-0.72;83.14;103141.72;5026912;28;20044;-67
2022/02/12 04:52:06;;;;;;;28.63;6.07;;;;;;;-0.73;83.23;103137.34;5025970;28;20079;-67
2022/02/12 04:54:33;;;;;;;22.45;5.70;;;;;;;-0.74;83.43;103131.28;5027346;28;20034;-66
2022/02/12 04:56:58;;;;;;;17.80;5.72;;;;;;;-0.75;83.08;103131.19;5019972;28;20435;-67
2022/02/12 04:59:24;;;;;;;17.73;5.43;;;;;;;-0.80;83.02;103120.59;5007943;28;20034;-67
2022/02/12 05:01:52;;;;;;;17.98;5.90;;;;;;;-0.80;83.14;103126.69;5019567;28;20383;-65
2022/02/12 05:04:18;;;;;;;19.63;6.00;;;;;;;-0.82;83.16;103117.94;5027634;28;20101;-66
2022/02/12 05:06:44;;;;;;;37.17;7.00;;;;;;;-0.85;83.49;103112.59;5026288;28;20867;-67
2022/02/12 05:09:13;;;;;;;14.68;5.65;;;;;;;-0.88;83.39;103119.34;5028315;28;20022;-68
2022/02/12 05:11:39;;;;;;;;;;;;;;;-0.88;83.24;103121.94;5025346;28;20025;-65
2022/02/12 05:14:04;;;;;;;16.67;5.38;;;;;;;-0.94;83.38;103122.47;5026356;28;19921;-67
2022/02/12 05:16:30;;;;;;;18.10;5.50;;;;;;;-0.96;83.59;103118.94;5026927;28;20040;-66
2022/02/12 05:18:55;;;;;;;19.10;6.85;;;;;;;-1.02;84.05;103114.34;5025376;28;20025;-66
2022/02/12 05:21:20;;;;;;;21.95;7.32;;;;;;;-1.05;84.05;103114.19;5026522;28;20047;-66
2022/02/12 05:23:46;;;;;;;19.10;6.30;;;;;;;-1.08;84.29;103112.31;5026752;28;20422;-66
2022/02/12 05:26:11;;;;;;;16.83;6.18;;;;;;;-1.08;83.81;103114.91;5026685;28;20029;-65
2022/02/12 05:28:37;;;;;;;18.30;6.90;;;;;;;-1.11;84.22;103107.00;5026299;28;20040;-67
2022/02/12 05:31:02;;;;;;;21.38;7.88;;;;;;;-1.13;84.49;103106.03;5026225;28;20017;-65
2022/02/12 05:33:28;;;;;;;26.17;7.70;;;;;;;-1.12;84.79;103107.78;5025214;28;20072;-66
2022/02/12 05:35:53;;;;;;;38.85;8.82;;;;;;;-1.15;84.55;103100.78;5025761;28;20057;-68
2022/02/12 05:38:18;;;;;;;30.05;7.57;;;;;;;-1.12;84.27;103106.94;5026471;28;20040;-66
2022/02/12 05:40:44;;;;;;;26.50;8.27;;;;;;;-1.16;84.29;103100.69;5026005;28;20021;-66
2022/02/12 05:43:09;;;;;;;26.73;8.25;;;;;;;-1.15;84.59;103098.19;5026306;28;20112;-67
2022/02/12 05:45:34;;;;;;;19.90;7.47;;;;;;;-1.15;84.58;103102.47;5026090;28;20025;-66
2022/02/12 05:48:00;;;;;;;20.73;8.07;;;;;;;-1.17;84.61;103088.56;5026294;28;20025;-66
2022/02/12 05:50:27;;;;;;;30.58;10.05;;;;;;;-1.14;84.91;103093.91;5026569;28;20610;-65
2022/02/12 05:52:53;;;;;;;22.90;7.63;;;;;;;-1.13;84.45;103089.59;5026182;28;20061;-67
2022/02/12 05:55:19;;;;;;;29.25;8.30;;;;;;;-1.14;84.44;103086.16;5024534;28;20032;-65
2022/02/12 05:57:44;;;;;;;30.95;8.82;;;;;;;-1.15;84.62;103076.59;5024783;28;20021;-66
2022/02/12 06:00:10;;;;;;;20.45;7.82;;;;;;;-1.12;84.82;103084.50;5025338;28;20033;-65
2022/02/12 06:02:35;;;;;;;21.98;7.93;;;;;;;-1.08;84.80;103068.31;5025877;28;20476;-65
2022/02/12 06:05:01;;;;;;;34.33;8.82;;;;;;;-1.03;84.52;103073.72;5041196;28;20025;-67
2022/02/12 06:07:26;;;;;;;26.70;9.38;;;;;;;-0.98;84.14;103066.19;5025742;28;20033;-67
2022/02/12 06:09:51;;;;;;;23.25;9.38;;;;;;;-0.98;84.08;103066.19;5025535;28;20052;-66
2022/02/12 06:12:17;;;;;;;22.50;8.20;;;;;;;-1.03;83.88;103060.78;5025416;28;20021;-66
2022/02/12 06:14:42;;;;;;;25.05;8.60;;;;;;;-1.03;83.94;103066.88;5028012;28;20073;-67
2022/02/12 06:17:07;;;;;;;22.40;8.32;;;;;;;-1.05;83.90;103057.25;5026735;28;20386;-67
2022/02/12 06:19:32;;;;;;;31.48;8.77;;;;;;;-1.07;83.96;103049.41;5024395;28;20021;-67
2022/02/12 06:21:58;;;;;;;32.35;10.00;;;;;;;-1.04;83.98;103043.50;5024938;28;20036;-67
2022/02/12 06:24:23;;;;;;;35.13;8.98;;;;;;;-1.01;83.87;103038.47;5024260;28;20029;-68
2022/02/12 06:26:54;;;;;;;32.15;8.20;;;;;;;-1.03;83.63;103035.81;5024904;28;20487;-67
2022/02/12 06:29:21;;;;;;;25.50;9.02;;;;;;;-1.00;83.67;103032.47;5022935;28;20467;-65
2022/02/12 06:31:47;;;;;;;24.77;9.05;;;;;;;-0.97;83.63;103031.78;5028031;28;20080;-67
2022/02/12 06:34:12;;;;;;;33.00;8.50;;;;;;;-1.00;83.65;103029.03;5028896;28;20117;-66
2022/02/12 06:36:38;;;;;;;23.67;8.27;;;;;;;-1.03;83.55;103024.56;5025409;28;20057;-67
2022/02/12 06:39:03;;;;;;;21.75;9.15;;;;;;;-1.00;83.78;103018.66;5025107;28;20479;-66
2022/02/12 06:41:28;;;;;;;21.77;8.40;;;;;;;-1.05;83.75;103021.91;5024569;28;20068;-74
2022/02/12 06:43:54;;;;;;;30.48;9.35;;;;;;;-1.03;83.70;103019.38;5024042;28;20017;-74
2022/02/12 06:46:19;;;;;;;24.55;9.50;;;;;;;-1.02;83.70;103024.63;5024556;28;20025;-76
2022/02/12 06:48:45;;;;;;;33.85;10.50;;;;;;;-1.00;83.82;103026.44;5023925;28;20034;-73
2022/02/12 06:51:12;;;;;;;40.75;10.23;;;;;;;-1.02;83.79;103026.38;5022929;28;20100;-74
2022/02/12 06:53:37;;;;;;;25.33;10.60;;;;;;;-1.02;83.75;103022.06;5024683;28;20022;-75
2022/02/12 06:56:03;;;;;;;23.63;8.52;;;;;;;-1.00;83.63;103019.53;5022214;28;20348;-75
2022/02/12 06:58:29;;;;;;;31.73;9.45;;;;;;;-1.00;83.82;103026.44;5024857;28;20314;-70
2022/02/12 07:00:54;;;;;;;33.00;9.38;;;;;;;-1.03;83.60;103015.09;5024380;28;20020;-73
2022/02/12 07:03:19;;;;;;;29.83;10.20;;;;;;;-1.05;83.56;103019.31;5024031;28;20159;-72
2022/02/12 07:05:45;;;;;;;21.60;8.60;;;;;;;-1.07;83.63;103023.53;5023822;28;20026;-71
2022/02/12 07:08:10;;;;;;;34.20;11.18;;;;;;;-1.09;83.58;103025.16;5024728;28;20080;-71
2022/02/12 07:10:36;;;;;;;18.77;8.77;;;;;;;-1.10;83.73;103023.38;5023632;28;20021;-71
2022/02/12 07:13:04;;;;;;;21.60;10.10;;;;;;;-1.13;83.88;103025.81;5028401;28;20029;-70
2022/02/12 07:15:30;;;;;;;25.03;10.53;;;;;;;-1.13;83.87;103017.16;5027509;28;20025;-69
2022/02/12 07:17:55;;;;;;;27.98;10.40;;;;;;;-1.14;83.91;103018.88;5028352;28;20086;-69
2022/02/12 07:20:21;;;;;;;26.55;9.57;;;;;;;-1.13;83.86;103023.22;5026590;28;20064;-76
2022/02/12 07:22:46;;;;;;;30.05;9.10;;;;;;;-1.12;83.87;103018.94;5016856;28;20052;-77
2022/02/12 07:25:12;;;;;;;26.58;9.77;;;;;;;-1.17;83.76;103021.31;5022149;28;20084;-69
2022/02/12 07:27:38;;;;;;;35.22;10.95;;;;;;;-1.13;83.94;103017.16;5028798;28;20376;-65
2022/02/12 07:30:08;;;;;;;29.17;11.68;;;;;;;-1.13;83.99;103014.56;5023973;28;20300;-71
2022/02/12 07:32:37;;;;;;;26.42;10.48;;;;;;;-1.09;83.93;103019.97;5018980;28;20125;-71
2022/02/12 07:35:05;;;;;;;31.02;10.52;;;;;;;-1.10;84.13;103013.03;5017457;28;20048;-73
2022/02/12 07:37:30;;;;;;;26.48;10.93;;;;;;;-1.08;83.90;103005.34;5018847;28;20059;-71
2022/02/12 07:39:56;;;;;;;29.42;10.43;;;;;;;-0.99;83.86;103007.50;5023590;28;20060;-74
2022/02/12 07:42:21;;;;;;;33.63;11.85;;;;;;;-1.00;83.75;103008.31;5031312;28;20426;-75
2022/02/12 07:44:46;;;;;;;38.30;12.05;;;;;;;-0.99;83.80;103003.22;5027961;28;20022;-74
2022/02/12 07:47:12;;;;;;;25.88;9.13;;;;;;;-0.95;83.60;103005.16;5028176;28;20074;-72
2022/02/12 07:49:37;;;;;;;25.10;9.10;;;;;;;-0.91;83.48;103003.56;5028103;28;20029;-71
2022/02/12 07:52:03;;;;;;;35.95;12.23;;;;;;;-0.85;83.42;103003.00;5027231;28;20391;-69
2022/02/12 07:54:28;;;;;;;24.05;9.73;;;;;;;-0.79;83.24;103004.19;5028086;28;20079;-69
2022/02/12 07:56:56;;;;;;;28.67;9.95;;;;;;;-0.73;82.99;103002.72;5026469;28;20079;-71
2022/02/12 07:59:22;;;;;;;35.13;11.13;;;;;;;-0.71;82.76;103003.66;5030163;28;20044;-67
2022/02/12 08:01:48;;;;;;;23.67;9.80;;;;;;;-0.68;82.82;102999.53;5027777;28;20383;-66
2022/02/12 08:04:13;;;;;;;26.27;10.57;;;;;;;-0.58;82.60;103005.13;5027413;28;20006;-66
2022/02/12 08:09:22;;;;;;;31.67;9.43;;;;;;;-0.47;82.16;102992.69;5027626;28;20557;-65
2022/02/12 08:11:53;;;;;;;24.52;10.15;;;;;;;-0.40;82.02;102989.56;5021529;28;20017;-66
2022/02/12 08:14:18;;;;;;;30.00;11.05;;;;;;;-0.37;81.43;102987.13;5026847;28;20037;-67
2022/02/12 08:16:43;;;;;;;23.40;8.45;;;;;;;-0.27;81.49;102984.13;5027723;28;20117;-64
2022/02/12 08:19:08;;;;;;;33.42;10.68;;;;;;;-0.27;81.26;102984.13;5027767;28;20087;-65
2022/02/12 08:21:34;;;;;;;22.00;8.65;;;;;;;-0.18;81.08;102980.22;5027545;28;20034;-66
2022/02/12 08:23:59;;;;;;;26.85;9.57;;;;;;;-0.13;80.65;102968.34;5026386;28;20463;-65
2022/02/12 08:26:24;;;;;;;34.55;9.85;;;;;;;-0.04;80.75;102976.53;5027143;28;20036;-66
2022/02/12 08:28:50;;;;;;;25.40;9.05;;;;;;;0.02;80.25;102980.19;5027338;28;20021;-67
2022/02/12 08:31:15;;;;;;;22.63;8.70;;;;;;;0.11;79.95;102978.03;5027437;28;20490;-66
2022/02/12 08:33:40;;;;;;;26.02;8.68;;;;;;;0.18;79.89;102977.47;5026039;28;20108;-64
2022/02/12 08:36:06;;;;;;;26.25;8.52;;;;;;;0.21;79.69;102975.00;5026541;28;20025;-67
2022/02/12 08:38:31;;;;;;;24.83;8.35;;;;;;;0.33;79.58;102973.81;5026860;28;20108;-67
2022/02/12 08:40:57;;;;;;;19.52;7.32;;;;;;;0.39;79.09;102976.63;5025109;28;20067;-66
2022/02/12 08:43:22;;;;;;;18.13;8.43;;;;;;;0.53;78.77;102963.38;5025116;28;20485;-65
2022/02/12 08:45:47;;;;;;;23.67;9.40;;;;;;;0.62;78.37;102961.16;5026676;28;20520;-64
2022/02/12 08:48:13;;;;;;;26.50;9.02;;;;;;;0.69;78.14;102951.94;5027782;28;20060;-65
2022/02/12 08:50:38;;;;;;;19.23;7.30;;;;;;;0.78;78.04;102954.03;5041258;28;20387;-65
2022/02/12 08:53:04;;;;;;;20.42;7.85;;;;;;;0.85;77.75;102949.13;5026892;28;20832;-66
2022/02/12 08:55:29;;;;;;;22.65;8.25;;;;;;;0.90;77.81;102946.72;5025774;28;20446;-65
2022/02/12 08:57:55;;;;;;;25.75;8.38;;;;;;;0.92;77.74;102945.09;5025662;28;20018;-65
2022/02/12 09:00:21;;;;;;;23.50;7.90;;;;;;;1.07;77.70;102941.31;5026429;28;20452;-67
2022/02/12 09:02:46;;;;;;;23.65;8.18;;;;;;;1.21;76.83;102924.56;5025922;28;20193;-64
2022/02/12 09:05:12;;;;;;;17.70;7.30;;;;;;;1.25;76.20;102931.69;5026259;28;20025;-65
2022/02/12 09:07:37;;;;;;;25.17;8.10;;;;;;;1.34;76.07;102922.44;5026516;28;20021;-66
2022/02/12 09:10:03;;;;;;;22.08;8.27;;;;;;;1.46;75.85;102916.84;5025849;28;20053;-65
2022/02/12 09:12:28;;;;;;;18.77;6.93;;;;;;;1.60;75.35;102918.22;5025642;28;20100;-67
2022/02/12 09:14:54;;;;;;;18.85;8.70;;;;;;;1.67;75.08;102908.97;5026028;28;20406;-65
2022/02/12 09:17:19;;;;;;;19.13;8.65;;;;;;;1.80;74.64;102914.63;5026301;28;20021;-66
2022/02/12 09:19:45;;;;;;;20.23;8.50;;;;;;;1.89;73.93;102926.22;5025781;28;20021;-65
2022/02/12 09:22:10;;;;;;;35.08;7.85;;;;;;;2.03;73.95;102912.84;5025124;28;20030;-66
2022/02/12 09:24:36;;;;;;;27.25;7.90;;;;;;;2.10;73.43;102903.53;5041781;28;20097;-65
2022/02/12 09:27:01;;;;;;;25.00;7.63;;;;;;;2.19;72.79;102903.84;5023677;28;20113;-65
2022/02/12 09:29:26;;;;;;;21.55;7.85;;;;;;;2.33;72.29;102901.72;5025781;28;20035;-65
2022/02/12 09:31:52;;;;;;;21.20;8.43;;;;;;;2.46;72.06;102904.72;5025955;28;20014;-66
2022/02/12 09:34:17;;;;;;;20.67;7.55;;;;;;;2.56;71.44;102899.00;5026200;28;20074;-64
2022/02/12 09:36:42;;;;;;;19.58;7.60;;;;;;;2.69;70.95;102899.41;5025607;28;20186;-64
2022/02/12 09:39:08;;;;;;;23.38;7.35;;;;;;;2.79;70.72;102896.25;5025553;28;20025;-65
2022/02/12 09:41:33;;;;;;;17.77;7.30;;;;;;;2.85;70.43;102895.56;5023347;28;20884;-66
2022/02/12 09:43:59;;;;;;;20.73;6.55;;;;;;;2.97;70.23;102890.75;5025056;28;20119;-65
2022/02/12 09:46:27;;;;;;;16.25;6.53;;;;;;;3.14;70.06;102877.34;5024223;28;20033;-65
2022/02/12 09:48:53;;;;;;;13.75;5.55;;;;;;;3.21;69.34;102883.63;5025640;28;20052;-66
2022/02/12 09:51:19;;;;;;;16.95;5.10;;;;;;;3.26;68.80;102884.66;5023766;28;20017;-65
2022/02/12 09:53:45;;;;;;;19.95;5.40;;;;;;;3.40;68.21;102885.03;5024957;28;20034;-64
2022/02/12 09:56:10;;;;;;;15.00;4.53;;;;;;;3.54;67.85;102886.34;5024996;28;20017;-65
2022/02/12 09:58:36;;;;;;;21.63;6.35;;;;;;;3.67;67.05;102884.97;5024983;28;20064;-64
2022/02/12 10:01:02;;;;;;;13.40;4.80;;;;;;;3.73;65.59;102867.75;5025070;28;20117;-64
2022/02/12 10:03:27;;;;;;;15.73;5.15;;;;;;;3.77;65.37;102853.94;5025520;28;20029;-64
2022/02/12 10:05:53;;;;;;;11.23;4.57;;;;;;;3.86;65.45;102858.50;5024653;28;20407;-66
2022/02/12 10:08:21;;;;;;;16.90;4.85;;;;;;;3.88;64.86;102854.19;5025058;28;20017;-65
2022/02/12 10:10:47;;;;;;;9.73;4.55;;;;;;;3.95;64.50;102852.66;5024297;28;20041;-64
2022/02/12 10:13:15;;;;;;;15.55;3.83;;;;;;;4.06;64.42;102847.72;5021227;28;20040;-64
2022/02/12 10:15:43;;;;;;;14.57;4.47;;;;;;;4.09;64.06;102840.84;5024597;28;20044;-64
2022/02/12 10:18:09;;;;;;;9.95;4.53;;;;;;;4.21;64.01;102832.44;5024575;28;20467;-64
2022/02/12 10:20:37;;;;;;;17.30;4.38;;;;;;;4.27;63.61;102835.22;5024146;28;20037;-65
2022/02/12 10:23:04;;;;;;;12.18;3.90;;;;;;;4.37;63.40;102827.63;5024325;28;20075;-65
2022/02/12 10:25:30;;;;;;;19.90;4.05;;;;;;;4.45;62.47;102828.66;5024250;28;20507;-64
2022/02/12 10:27:55;;;;;;;12.35;4.20;;;;;;;4.52;62.55;102830.56;5023864;28;20100;-64
2022/02/12 10:30:25;;;;;;;19.33;4.45;;;;;;;4.65;62.88;102826.53;5024756;28;20021;-64
2022/02/12 10:32:54;;;;;;;16.95;4.63;;;;;;;4.60;62.36;102828.16;5024382;28;20025;-64
2022/02/12 10:35:19;;;;;;;14.68;4.43;;;;;;;4.67;61.56;102839.63;5021887;28;20060;-64
2022/02/12 10:37:48;;;;;;;10.90;3.58;;;;;;;4.73;61.25;102833.66;5023353;28;20061;-65
2022/02/12 10:40:14;;;;;;;11.63;3.92;;;;;;;4.78;60.73;102832.03;5024400;28;20029;-64
2022/02/12 10:42:46;;;;;;;9.63;3.63;;;;;;;4.87;60.59;102833.97;5021421;28;20025;-65
2022/02/12 10:45:18;;;;;;;12.82;3.58;;;;;;;5.02;60.43;102836.91;5023830;28;20022;-65
2022/02/12 10:47:45;;;;;;;13.38;3.85;;;;;;;5.12;59.61;102842.34;5022399;28;20025;-64
2022/02/12 10:50:10;;;;;;;11.88;3.80;;;;;;;5.17;59.69;102845.94;5024649;28;20447;-64
2022/02/12 10:52:40;;;;;;;14.27;3.75;;;;;;;5.20;59.60;102839.91;5023890;28;20109;-65
2022/02/12 10:55:06;;;;;;;12.52;4.35;;;;;;;5.27;58.66;102837.44;5024574;28;20457;-64
2022/02/12 10:57:38;;;;;;;20.38;4.60;;;;;;;5.39;58.63;102835.94;5015361;28;20033;-66
2022/02/12 11:00:05;;;;;;;17.83;4.05;;;;;;;5.41;58.04;102842.06;5007194;28;20030;-63
2022/02/12 11:02:31;;;;;;;12.00;3.58;;;;;;;5.52;57.90;102837.03;4990472;28;20084;-66
2022/02/12 11:04:57;;;;;;;9.93;3.70;;;;;;;5.64;57.79;102825.94;5012040;28;20025;-64
2022/02/12 11:07:24;;;;;;;10.48;3.55;;;;;;;5.72;57.23;102828.72;5001811;28;20112;-65
2022/02/12 11:09:50;;;;;;;16.73;3.17;;;;;;;5.77;57.50;102821.81;4994095;28;20026;-65
2022/02/12 11:12:16;;;;;;;10.20;3.50;;;;;;;5.71;57.65;102825.19;5003879;28;20025;-61
2022/02/12 11:14:47;;;;;;;13.05;3.30;;;;;;;5.84;56.82;102807.13;5019059;28;20360;-63
2022/02/12 11:17:16;;;;;;;9.38;3.45;;;;;;;5.93;57.02;102794.22;4995612;28;20021;-63
2022/02/12 11:19:44;;;;;;;8.57;3.47;;;;;;;5.99;56.36;102791.66;5020070;28;20036;-63
2022/02/12 11:22:10;;;;;;;10.15;3.90;;;;;;;6.02;55.98;102794.34;4997497;28;20852;-63